Time;durP1;ratioP1;P1;durP2;ratioP2;P2;SDS_P1;SDS_P2;PMS_P1;PMS_P2;Temp;Humidity;BMP_temperature;BMP_pressure;BME280_temperature;BME280_humidity;BME280_pressure;Samples;Min_cycle;Max_cycle;Signal;HPM_P1;HPM_P2
2021/12/01 00:02:11;;;;;;;30.77;14.05;;;9.30;99.90;;;;;;6203589;23;20095;-69
2021/12/01 00:04:37;;;;;;;38.13;15.10;;;9.30;99.90;;;;;;6178700;23;20044;-69
2021/12/01 00:07:03;;;;;;;30.10;12.68;;;9.30;99.90;;;;;;6178501;23;20429;-70
2021/12/01 00:09:29;;;;;;;42.95;14.45;;;9.30;99.90;;;;;;6176989;23;20074;-69
2021/12/01 00:11:54;;;;;;;34.45;12.52;;;9.30;99.90;;;;;;6177675;23;20458;-69
2021/12/01 00:14:20;;;;;;;32.08;12.80;;;9.30;99.90;;;;;;6204291;23;20720;-69
2021/12/01 00:16:46;;;;;;;39.97;15.00;;;9.30;99.90;;;;;;6203365;23;20039;-69
2021/12/01 00:19:12;;;;;;;30.52;12.73;;;9.30;99.90;;;;;;6174975;23;20024;-69
2021/12/01 00:21:37;;;;;;;39.20;14.45;;;9.30;99.90;;;;;;6176180;23;20044;-70
2021/12/01 00:24:03;;;;;;;44.17;14.82;;;9.30;99.90;;;;;;6176240;23;20424;-70
2021/12/01 00:26:29;;;;;;;40.08;15.02;;;9.30;99.90;;;;;;6207461;23;20044;-69
2021/12/01 00:28:55;;;;;;;40.38;13.40;;;9.30;99.90;;;;;;6177454;23;20091;-69
2021/12/01 00:31:20;;;;;;;43.78;14.13;;;9.20;99.90;;;;;;6176368;23;20066;-70
2021/12/01 00:33:46;;;;;;;40.10;15.23;;;9.20;99.90;;;;;;6178631;23;20143;-70
2021/12/01 00:36:15;;;;;;;34.65;15.48;;;9.20;99.90;;;;;;6176236;23;20028;-70
2021/12/01 00:38:42;;;;;;;41.38;15.88;;;9.20;99.90;;;;;;6178378;23;20047;-70
2021/12/01 00:41:09;;;;;;;39.63;14.98;;;9.20;99.90;;;;;;6179395;23;20021;-70
2021/12/01 00:43:38;;;;;;;37.30;14.30;;;9.20;99.90;;;;;;6181051;23;20087;-68
2021/12/01 00:46:21;;;;;;;27.73;12.70;;;9.20;99.90;;;;;;6178899;23;20091;-68
2021/12/01 00:48:46;;;;;;;27.77;12.00;;;9.20;99.90;;;;;;6183286;23;20435;-69
2021/12/01 00:51:12;;;;;;;32.70;10.85;;;9.20;99.90;;;;;;6181673;23;20020;-69
2021/12/01 00:53:38;;;;;;;32.10;13.20;;;9.20;99.90;;;;;;6178405;23;20048;-69
2021/12/01 00:56:05;;;;;;;36.58;13.52;;;9.20;99.90;;;;;;6178701;23;20086;-70
2021/12/01 00:58:30;;;;;;;35.05;12.57;;;9.20;99.90;;;;;;6179288;23;20044;-69
2021/12/01 01:00:58;;;;;;;23.33;11.98;;;9.20;99.90;;;;;;6204081;23;20059;-70
2021/12/01 01:03:23;;;;;;;26.65;11.32;;;9.20;99.90;;;;;;6206524;23;20055;-69
2021/12/01 01:05:49;;;;;;;21.30;11.30;;;9.20;99.90;;;;;;6207229;23;20024;-69
2021/12/01 01:08:17;;;;;;;27.33;11.77;;;9.20;99.90;;;;;;6178691;23;20025;-69
2021/12/01 01:18:45;;;;;;;21.88;7.75;;;9.20;99.90;;;;;;6206339;23;20052;-69
2021/12/01 01:21:11;;;;;;;23.40;7.78;;;9.20;99.90;;;;;;6205691;23;20087;-69
2021/12/01 01:23:38;;;;;;;21.70;7.75;;;9.20;99.90;;;;;;6206560;23;20021;-69
2021/12/01 01:26:07;;;;;;;18.02;6.05;;;9.20;99.90;;;;;;6206306;23;20052;-70
2021/12/01 01:28:33;;;;;;;20.15;6.28;;;9.30;99.90;;;;;;6179362;23;20021;-69
2021/12/01 01:30:59;;;;;;;17.85;5.65;;;9.30;99.90;;;;;;6177766;23;20099;-69
2021/12/01 01:33:25;;;;;;;22.27;5.85;;;9.30;99.90;;;;;;6180729;23;20110;-69
2021/12/01 01:35:52;;;;;;;16.80;5.78;;;9.30;99.90;;;;;;6179561;23;20097;-70
2021/12/01 01:38:19;;;;;;;22.38;5.50;;;9.40;99.90;;;;;;6206303;23;20024;-69
2021/12/01 01:40:45;;;;;;;25.23;5.45;;;9.40;99.90;;;;;;6178911;23;20039;-69
2021/12/01 01:43:11;;;;;;;11.65;4.80;;;9.40;99.90;;;;;;6205935;23;20082;-69
2021/12/01 01:45:37;;;;;;;19.33;4.88;;;9.40;99.90;;;;;;6179097;23;20071;-70
2021/12/01 01:48:05;;;;;;;17.80;4.13;;;9.40;99.90;;;;;;6180580;23;20017;-71
2021/12/01 01:50:36;;;;;;;13.85;3.58;;;9.40;99.90;;;;;;6179691;23;20375;-69
2021/12/01 01:53:09;;;;;;;17.58;3.97;;;9.40;99.90;;;;;;6180155;23;20020;-69
2021/12/01 01:55:38;;;;;;;18.05;3.78;;;9.40;99.90;;;;;;6207083;23;20079;-70
2021/12/01 01:58:04;;;;;;;17.10;2.88;;;9.50;99.90;;;;;;6204849;23;20021;-70
2021/12/01 02:00:29;;;;;;;8.15;2.13;;;9.50;99.90;;;;;;6178034;23;20074;-70
2021/12/01 02:02:58;;;;;;;11.68;2.53;;;9.50;99.90;;;;;;6178972;23;20051;-70
2021/12/01 02:05:23;;;;;;;12.93;3.63;;;9.50;99.90;;;;;;6178083;23;20071;-70
2021/12/01 02:07:51;;;;;;;8.63;1.73;;;9.60;99.90;;;;;;6178732;23;20017;-69
2021/12/01 02:10:16;;;;;;;11.88;2.03;;;9.60;99.90;;;;;;6153393;23;20016;-70
2021/12/01 02:12:42;;;;;;;11.57;2.42;;;9.70;99.90;;;;;;6178182;23;20101;-70
2021/12/01 02:15:08;;;;;;;13.02;2.40;;;9.70;99.90;;;;;;6177662;23;20074;-70
2021/12/01 02:17:35;;;;;;;10.77;2.35;;;9.70;99.90;;;;;;6178064;23;20040;-70
2021/12/01 02:20:01;;;;;;;13.77;2.53;;;9.70;99.90;;;;;;6177241;23;20067;-70
2021/12/01 02:22:26;;;;;;;17.02;3.15;;;9.70;99.90;;;;;;6179390;23;20017;-69
2021/12/01 02:24:52;;;;;;;7.70;2.10;;;9.70;99.90;;;;;;6178836;23;20033;-69
2021/12/01 02:27:18;;;;;;;16.48;2.75;;;9.70;99.90;;;;;;6176716;23;20139;-69
2021/12/01 02:29:44;;;;;;;13.82;2.50;;;9.70;99.90;;;;;;6203767;23;20028;-69
2021/12/01 02:32:09;;;;;;;12.35;2.92;;;9.70;99.90;;;;;;6202129;23;20021;-68
2021/12/01 02:34:38;;;;;;;11.15;1.95;;;9.80;99.90;;;;;;6177533;23;20456;-69
2021/12/01 02:37:05;;;;;;;8.70;1.92;;;9.70;99.90;;;;;;6177488;23;20029;-69
2021/12/01 02:39:31;;;;;;;14.45;2.58;;;9.70;99.90;;;;;;6205203;23;20021;-69
2021/12/01 02:42:00;;;;;;;14.68;2.65;;;9.70;99.90;;;;;;6178588;23;20394;-68
2021/12/01 02:44:27;;;;;;;9.82;2.22;;;9.80;99.90;;;;;;6176152;23;20020;-69
2021/12/01 02:46:53;;;;;;;8.85;2.03;;;9.70;99.90;;;;;;6177011;23;20120;-68
2021/12/01 02:49:21;;;;;;;16.13;3.08;;;9.80;99.90;;;;;;6203043;23;20020;-69
2021/12/01 02:51:48;;;;;;;16.20;2.83;;;9.80;99.90;;;;;;6204786;23;20039;-69
2021/12/01 02:54:15;;;;;;;6.93;1.60;;;9.80;99.90;;;;;;6205237;23;20024;-69
2021/12/01 02:56:46;;;;;;;11.65;2.53;;;9.80;99.90;;;;;;6178627;23;20361;-68
2021/12/01 02:59:12;;;;;;;17.00;2.72;;;9.80;99.90;;;;;;6178404;23;20381;-70
2021/12/01 03:01:37;;;;;;;12.27;2.22;;;9.80;99.90;;;;;;6188896;23;20020;-70
2021/12/01 03:04:04;;;;;;;21.40;3.15;;;9.80;99.90;;;;;;6204791;23;20028;-70
2021/12/01 03:06:30;;;;;;;20.55;3.03;;;9.70;99.90;;;;;;6202720;23;20047;-69
2021/12/01 03:08:57;;;;;;;17.48;2.58;;;9.70;99.90;;;;;;6204520;23;20460;-70
2021/12/01 03:11:24;;;;;;;15.50;2.58;;;9.70;99.90;;;;;;6207004;23;20019;-69
2021/12/01 03:13:49;;;;;;;11.55;2.28;;;9.80;99.90;;;;;;6205018;23;20090;-69
2021/12/01 03:16:15;;;;;;;12.13;2.40;;;9.80;99.90;;;;;;6203078;23;20029;-69
2021/12/01 03:18:44;;;;;;;10.18;2.03;;;9.80;99.90;;;;;;6203989;23;20024;-69
2021/12/01 03:21:11;;;;;;;18.30;2.97;;;9.80;99.90;;;;;;6204540;23;20021;-69
2021/12/01 03:23:37;;;;;;;11.98;2.38;;;9.80;99.90;;;;;;6206829;23;20016;-69
2021/12/01 03:26:02;;;;;;;23.33;3.28;;;9.80;99.90;;;;;;6203695;23;20103;-70
2021/12/01 03:28:28;;;;;;;15.10;2.63;;;9.80;99.90;;;;;;6203632;23;20044;-69
2021/12/01 03:30:54;;;;;;;17.15;3.05;;;9.80;99.90;;;;;;6202265;23;20631;-69
2021/12/01 03:33:21;;;;;;;16.60;2.22;;;9.80;99.90;;;;;;6202806;23;20035;-70
2021/12/01 03:35:49;;;;;;;11.10;2.10;;;9.80;99.90;;;;;;6202562;23;20052;-69
2021/12/01 03:38:17;;;;;;;16.10;2.63;;;9.80;99.90;;;;;;6202415;23;20028;-69
2021/12/01 03:40:43;;;;;;;14.85;2.70;;;9.80;99.90;;;;;;6203559;23;20028;-68
2021/12/01 03:43:08;;;;;;;19.90;3.92;;;9.80;99.90;;;;;;6203305;23;20095;-69
2021/12/01 03:45:34;;;;;;;19.02;3.58;;;9.80;99.90;;;;;;6202460;23;20025;-68
2021/12/01 03:48:00;;;;;;;16.60;3.10;;;9.80;99.90;;;;;;6203453;23;20374;-69
2021/12/01 03:50:26;;;;;;;20.23;4.10;;;9.80;99.90;;;;;;6202148;23;20432;-69
2021/12/01 03:52:51;;;;;;;25.63;4.05;;;9.80;99.90;;;;;;6205962;23;20041;-69
2021/12/01 03:55:17;;;;;;;23.40;3.60;;;9.80;99.90;;;;;;6203336;23;20017;-69
2021/12/01 03:57:44;;;;;;;15.40;2.53;;;9.80;99.90;;;;;;6204607;23;20562;-69
2021/12/01 04:00:12;;;;;;;26.45;3.88;;;9.80;99.90;;;;;;6200435;23;20028;-69
2021/12/01 04:02:38;;;;;;;20.65;3.63;;;9.80;99.90;;;;;;6202890;23;20099;-69
2021/12/01 04:05:05;;;;;;;27.20;4.38;;;9.80;99.90;;;;;;6202401;23;20091;-69
2021/12/01 04:07:31;;;;;;;26.20;3.63;;;9.80;99.90;;;;;;6202906;23;20020;-69
2021/12/01 04:09:57;;;;;;;13.65;3.17;;;9.80;99.90;;;;;;6203155;23;20017;-68
2021/12/01 04:12:22;;;;;;;15.35;3.22;;;9.90;99.90;;;;;;6206753;23;20036;-69
2021/12/01 04:14:48;;;;;;;24.67;4.15;;;9.80;99.90;;;;;;6204035;23;20020;-69
2021/12/01 04:17:14;;;;;;;28.65;5.07;;;9.90;99.90;;;;;;6204036;23;20024;-70
2021/12/01 04:19:39;;;;;;;20.60;3.60;;;9.80;99.90;;;;;;6204554;23;20449;-69
2021/12/01 04:22:05;;;;;;;16.98;3.92;;;9.80;99.90;;;;;;6205708;23;20021;-70
2021/12/01 04:24:31;;;;;;;21.10;3.72;;;9.80;99.90;;;;;;6204753;23;20020;-69
2021/12/01 04:26:57;;;;;;;22.30;3.95;;;9.80;99.90;;;;;;6180654;23;20099;-69
2021/12/01 04:29:25;;;;;;;15.05;2.95;;;9.80;99.90;;;;;;6203161;23;20222;-69
2021/12/01 04:31:50;;;;;;;21.52;3.05;;;9.70;99.90;;;;;;6204129;23;20107;-69
2021/12/01 04:34:16;;;;;;;11.65;2.10;;;9.80;99.90;;;;;;6202635;23;20036;-69
2021/12/01 04:36:43;;;;;;;16.98;3.10;;;9.80;99.90;;;;;;6207219;23;20013;-70
2021/12/01 04:39:12;;;;;;;16.58;3.08;;;9.80;99.90;;;;;;6204578;23;20044;-69
2021/12/01 04:41:48;;;;;;;12.95;2.72;;;9.80;99.90;;;;;;6206254;23;20346;-69
2021/12/01 04:44:14;;;;;;;7.47;2.00;;;9.80;99.90;;;;;;6203396;23;20017;-69
2021/12/01 04:46:46;;;;;;;10.88;2.28;;;9.80;99.90;;;;;;6206071;23;20029;-70
2021/12/01 04:49:15;;;;;;;7.18;2.33;;;9.80;99.90;;;;;;6203550;23;20035;-69
2021/12/01 04:51:43;;;;;;;9.52;2.10;;;9.80;99.90;;;;;;6204371;23;20017;-70
2021/12/01 04:54:09;;;;;;;4.75;1.38;;;9.80;99.90;;;;;;6203906;23;20461;-70
2021/12/01 04:56:37;;;;;;;5.97;1.20;;;9.90;99.90;;;;;;6206225;23;20020;-69
2021/12/01 04:59:04;;;;;;;2.75;0.82;;;9.80;99.90;;;;;;6203680;23;20020;-69
2021/12/01 05:01:29;;;;;;;5.10;1.48;;;9.80;99.90;;;;;;6203179;23;20017;-69
2021/12/01 05:03:55;;;;;;;5.97;1.50;;;9.90;99.90;;;;;;6204926;23;20487;-69
2021/12/01 05:06:22;;;;;;;3.85;1.33;;;9.80;99.90;;;;;;6204113;23;20025;-69
2021/12/01 05:08:48;;;;;;;2.20;1.02;;;9.80;99.90;;;;;;6205570;23;20095;-69
2021/12/01 05:11:13;;;;;;;2.28;1.05;;;9.80;99.90;;;;;;6206719;23;20040;-69
2021/12/01 05:13:39;;;;;;;6.45;2.85;;;9.80;99.90;;;;;;6204850;23;20017;-69
2021/12/01 05:16:05;;;;;;;5.18;1.60;;;9.80;99.90;;;;;;6202846;23;20127;-69
2021/12/01 05:18:31;;;;;;;3.13;1.25;;;9.70;99.90;;;;;;6204460;23;20020;-69
2021/12/01 05:20:56;;;;;;;3.55;1.52;;;9.70;99.90;;;;;;6203378;23;20063;-69
2021/12/01 05:23:22;;;;;;;2.60;1.20;;;9.70;99.90;;;;;;6203586;23;20364;-68
2021/12/01 05:25:48;;;;;;;4.72;1.60;;;9.70;99.90;;;;;;6204541;23;20048;-69
2021/12/01 05:28:13;;;;;;;3.53;1.30;;;9.60;99.90;;;;;;6203678;23;20497;-70
2021/12/01 05:30:39;;;;;;;2.50;1.55;;;9.50;99.90;;;;;;6203444;23;20044;-69
2021/12/01 05:33:07;;;;;;;2.78;1.95;;;9.50;99.90;;;;;;6203176;23;20119;-70
2021/12/01 05:35:34;;;;;;;2.60;1.80;;;9.40;99.90;;;;;;6202783;23;20016;-69
2021/12/01 05:38:00;;;;;;;2.90;1.80;;;9.40;99.90;;;;;;6204098;23;20364;-71
2021/12/01 05:40:26;;;;;;;4.88;1.83;;;9.30;99.90;;;;;;6205980;23;20023;-70
2021/12/01 05:42:52;;;;;;;3.38;2.58;;;9.30;99.90;;;;;;6207356;23;20051;-69
2021/12/01 05:45:18;;;;;;;4.47;2.10;;;9.30;99.90;;;;;;6204859;23;20071;-69
2021/12/01 05:47:43;;;;;;;4.25;3.40;;;9.30;99.90;;;;;;6204690;23;20031;-69
2021/12/01 05:50:09;;;;;;;3.75;2.50;;;9.30;99.90;;;;;;6203780;23;20021;-69
2021/12/01 05:52:35;;;;;;;3.90;2.80;;;9.20;99.90;;;;;;6205660;23;20021;-69
2021/12/01 05:55:01;;;;;;;3.60;2.80;;;9.20;99.90;;;;;;6203131;23;20052;-72
2021/12/01 05:57:26;;;;;;;2.60;1.95;;;9.20;99.90;;;;;;6204326;23;20356;-69
2021/12/01 05:59:52;;;;;;;3.75;2.30;;;9.20;99.90;;;;;;6207284;23;20639;-70
2021/12/01 06:02:18;;;;;;;3.55;2.33;;;9.20;99.90;;;;;;6203227;23;20099;-69
2021/12/01 06:04:43;;;;;;;3.15;2.10;;;9.20;99.90;;;;;;6203122;23;20273;-69
2021/12/01 06:07:09;;;;;;;3.88;2.78;;;9.20;99.90;;;;;;6205026;23;20315;-70
2021/12/01 06:09:35;;;;;;;3.42;2.17;;;9.20;99.90;;;;;;6202914;23;20405;-70
2021/12/01 06:12:00;;;;;;;3.00;2.17;;;9.20;99.90;;;;;;6204668;23;20048;-71
2021/12/01 06:14:27;;;;;;;5.10;3.25;;;9.20;99.90;;;;;;6203488;23;20024;-70
2021/12/01 06:16:53;;;;;;;5.18;3.67;;;9.20;99.90;;;;;;6202688;23;20027;-70
2021/12/01 06:19:20;;;;;;;6.07;3.50;;;9.20;99.90;;;;;;6204886;23;20029;-71
2021/12/01 06:21:46;;;;;;;4.43;2.60;;;9.20;99.90;;;;;;6205215;23;20452;-70
2021/12/01 06:24:11;;;;;;;5.13;2.50;;;9.20;99.90;;;;;;6205397;23;20028;-69
2021/12/01 06:26:37;;;;;;;6.55;2.50;;;9.20;99.90;;;;;;6203290;23;20013;-77
2021/12/01 06:29:04;;;;;;;4.60;2.97;;;9.20;99.90;;;;;;6205749;23;20028;-74
2021/12/01 06:31:30;;;;;;;4.43;2.60;;;9.30;99.90;;;;;;6200188;23;20349;-74
2021/12/01 06:33:58;;;;;;;3.92;2.55;;;9.20;99.90;;;;;;6174422;23;20032;-74
2021/12/01 06:36:24;;;;;;;3.00;2.10;;;9.30;99.90;;;;;;6202313;23;20022;-74
2021/12/01 06:38:50;;;;;;;3.78;2.47;;;9.20;99.90;;;;;;6201617;23;20059;-73
2021/12/01 06:41:15;;;;;;;3.13;1.67;;;9.20;99.90;;;;;;6202500;23;20024;-73
2021/12/01 06:43:41;;;;;;;3.25;1.30;;;9.20;99.90;;;;;;6202420;23;20055;-73
2021/12/01 06:46:07;;;;;;;5.28;1.80;;;9.30;99.90;;;;;;6204839;23;20028;-73
2021/12/01 06:48:32;;;;;;;5.65;1.88;;;9.30;99.90;;;;;;6205260;23;20016;-73
2021/12/01 06:50:58;;;;;;;5.22;1.67;;;9.30;99.90;;;;;;6201578;23;20040;-74
2021/12/01 06:53:24;;;;;;;6.20;1.98;;;9.40;99.90;;;;;;6205313;23;20025;-70
2021/12/01 06:55:49;;;;;;;7.72;2.30;;;9.40;99.90;;;;;;6201400;23;20024;-73
2021/12/01 06:58:15;;;;;;;8.02;1.52;;;9.40;99.90;;;;;;6201191;23;20115;-71
2021/12/01 07:00:40;;;;;;;6.03;1.67;;;9.40;99.90;;;;;;6203361;23;20255;-73
2021/12/01 07:03:07;;;;;;;6.75;1.95;;;9.40;99.90;;;;;;6204721;23;20052;-73
2021/12/01 07:05:33;;;;;;;4.55;1.25;;;9.40;99.90;;;;;;6204901;23;20017;-73
2021/12/01 07:07:58;;;;;;;5.28;1.73;;;9.40;99.90;;;;;;6204657;23;20051;-73
2021/12/01 07:10:24;;;;;;;9.13;1.80;;;9.40;99.90;;;;;;6201457;23;20025;-72
2021/12/01 07:12:50;;;;;;;6.93;2.55;;;9.40;99.90;;;;;;6203017;23;20437;-77
2021/12/01 07:15:15;;;;;;;12.52;2.45;;;9.50;99.90;;;;;;6201362;23;20024;-76
2021/12/01 07:17:42;;;;;;;12.65;2.60;;;9.50;99.90;;;;;;6204759;23;20012;-69
2021/12/01 07:20:09;;;;;;;15.02;2.85;;;9.50;99.90;;;;;;6199208;23;20029;-68
2021/12/01 07:22:35;;;;;;;10.73;2.58;;;9.50;99.90;;;;;;6206167;23;20067;-69
2021/12/01 07:25:01;;;;;;;15.45;2.60;;;9.50;99.90;;;;;;6200467;23;20115;-72
2021/12/01 07:27:26;;;;;;;8.48;2.42;;;9.50;99.90;;;;;;6202144;23;20387;-69
2021/12/01 07:29:52;;;;;;;12.73;2.58;;;9.50;99.90;;;;;;6201616;23;20020;-69
2021/12/01 07:32:18;;;;;;;14.48;2.90;;;9.50;99.90;;;;;;6203306;23;20047;-69
2021/12/01 07:34:44;;;;;;;14.60;2.67;;;9.50;99.90;;;;;;6204520;23;20397;-69
2021/12/01 07:37:15;;;;;;;14.80;2.50;;;9.50;99.90;;;;;;6203191;23;20073;-69
2021/12/01 07:39:42;;;;;;;9.68;1.90;;;9.50;99.90;;;;;;6204308;23;20016;-69
2021/12/01 07:42:09;;;;;;;6.55;1.60;;;9.50;99.90;;;;;;6202845;23;20447;-69
2021/12/01 07:44:34;;;;;;;15.45;2.72;;;9.60;99.90;;;;;;6202870;23;20056;-68
2021/12/01 07:47:00;;;;;;;13.05;2.15;;;9.60;99.90;;;;;;6205810;23;20521;-69
2021/12/01 07:49:26;;;;;;;14.63;3.78;;;9.60;99.90;;;;;;6205049;23;20084;-68
2021/12/01 07:51:52;;;;;;;16.58;2.75;;;9.60;99.90;;;;;;6204873;23;20433;-69
2021/12/01 07:54:18;;;;;;;13.85;2.97;;;9.60;99.90;;;;;;6204693;23;20032;-69
2021/12/01 07:56:44;;;;;;;13.20;1.88;;;9.60;99.90;;;;;;6205585;23;20503;-69
2021/12/01 07:59:13;;;;;;;11.65;2.63;;;9.50;99.90;;;;;;6204072;23;20029;-69
2021/12/01 08:01:38;;;;;;;12.90;1.80;;;9.40;99.90;;;;;;6204002;23;20131;-69
2021/12/01 08:04:04;;;;;;;7.53;1.42;;;9.30;99.90;;;;;;6205516;23;20361;-69
2021/12/01 08:06:32;;;;;;;10.88;2.53;;;9.20;99.90;;;;;;6204217;23;20020;-68
2021/12/01 08:09:00;;;;;;;10.35;1.83;;;9.10;99.90;;;;;;6207255;23;20072;-68
2021/12/01 08:11:26;;;;;;;13.82;2.63;;;9.00;99.90;;;;;;6196127;23;20009;-69
2021/12/01 08:13:52;;;;;;;14.68;2.45;;;9.00;99.90;;;;;;6208880;23;20092;-69
2021/12/01 08:16:18;;;;;;;14.57;2.05;;;8.90;99.90;;;;;;6207227;23;20459;-69
2021/12/01 08:18:44;;;;;;;8.95;2.15;;;8.90;99.90;;;;;;6209395;23;20020;-68
2021/12/01 08:21:09;;;;;;;8.45;2.63;;;8.90;99.90;;;;;;6207335;23;20020;-68
2021/12/01 08:23:35;;;;;;;8.00;1.85;;;8.90;99.90;;;;;;6208725;23;20021;-68
2021/12/01 08:26:01;;;;;;;12.65;1.92;;;8.90;99.90;;;;;;6207568;23;20020;-72
2021/12/01 08:28:27;;;;;;;10.82;1.60;;;8.90;99.90;;;;;;6208561;23;20016;-69
2021/12/01 08:30:53;;;;;;;17.42;3.08;;;8.90;99.90;;;;;;6207182;23;20017;-69
2021/12/01 08:33:19;;;;;;;9.38;1.75;;;8.90;99.90;;;;;;6208925;23;20032;-70
2021/12/01 08:35:44;;;;;;;8.65;1.83;;;9.00;99.90;;;;;;6208119;23;20021;-69
2021/12/01 08:38:10;;;;;;;9.50;1.70;;;9.00;99.90;;;;;;6207429;23;20013;-69
2021/12/01 08:40:35;;;;;;;7.75;1.10;;;9.00;99.90;;;;;;6205603;23;20111;-69
2021/12/01 08:43:02;;;;;;;4.47;1.70;;;9.00;99.90;;;;;;6207355;23;20055;-69
2021/12/01 08:45:27;;;;;;;8.07;1.95;;;9.00;99.90;;;;;;6205995;23;20012;-69
2021/12/01 08:47:53;;;;;;;7.78;1.50;;;8.90;99.90;;;;;;6208412;23;20415;-69
2021/12/01 08:50:18;;;;;;;6.05;1.20;;;8.90;99.90;;;;;;6206665;23;20107;-69
2021/12/01 08:52:45;;;;;;;9.90;1.33;;;8.90;99.90;;;;;;6207946;23;20028;-69
2021/12/01 08:55:11;;;;;;;8.75;1.58;;;8.90;99.90;;;;;;6207125;23;20020;-69
2021/12/01 08:57:37;;;;;;;13.90;1.88;;;8.90;99.90;;;;;;6208491;23;20016;-69
2021/12/01 09:00:07;;;;;;;12.40;2.17;;;8.90;99.90;;;;;;6206546;23;20099;-68
2021/12/01 09:02:33;;;;;;;7.82;2.00;;;8.90;99.90;;;;;;6209298;23;20499;-69
2021/12/01 09:04:59;;;;;;;11.65;1.73;;;8.90;99.90;;;;;;6181789;23;20016;-68
2021/12/01 09:07:25;;;;;;;16.13;2.50;;;8.90;99.90;;;;;;6180347;23;20449;-69
2021/12/01 09:09:51;;;;;;;14.80;2.35;;;8.90;99.90;;;;;;6180097;23;20552;-69
2021/12/01 09:12:18;;;;;;;10.70;2.10;;;8.90;99.90;;;;;;6180692;23;20472;-69
2021/12/01 09:14:44;;;;;;;14.20;2.00;;;8.80;99.90;;;;;;6181427;23;20388;-69
2021/12/01 09:17:13;;;;;;;16.25;2.53;;;8.80;99.90;;;;;;6183432;23;20025;-70
2021/12/01 09:19:40;;;;;;;13.57;2.25;;;8.80;99.90;;;;;;6178909;23;20020;-69
2021/12/01 09:22:06;;;;;;;10.95;1.73;;;8.70;99.90;;;;;;6180691;23;20092;-70
2021/12/01 09:24:31;;;;;;;7.13;1.40;;;8.70;99.90;;;;;;6181444;23;20047;-69
2021/12/01 09:26:57;;;;;;;19.63;2.15;;;8.70;99.90;;;;;;6182653;23;20044;-70
2021/12/01 09:29:23;;;;;;;15.18;2.38;;;8.70;99.90;;;;;;6181819;23;20025;-69
2021/12/01 09:31:49;;;;;;;12.60;2.47;;;8.80;99.90;;;;;;6183232;23;20043;-68
2021/12/01 09:34:14;;;;;;;7.38;1.77;;;8.80;99.90;;;;;;6207791;23;20032;-68
2021/12/01 09:36:41;;;;;;;10.93;2.50;;;8.80;99.90;;;;;;6209507;23;20016;-69
2021/12/01 09:39:06;;;;;;;16.10;2.30;;;8.90;99.90;;;;;;6209161;23;20075;-69
2021/12/01 09:41:32;;;;;;;18.88;3.03;;;8.90;99.90;;;;;;6209832;23;20025;-69
2021/12/01 09:43:58;;;;;;;13.18;2.63;;;9.00;99.90;;;;;;6181545;23;20017;-69
2021/12/01 09:46:26;;;;;;;12.65;3.03;;;9.10;99.90;;;;;;6181599;23;20020;-68
2021/12/01 09:48:52;;;;;;;18.85;2.78;;;9.20;99.90;;;;;;6183705;23;20064;-68
2021/12/01 09:51:18;;;;;;;22.48;3.47;;;9.20;99.90;;;;;;6209658;23;20348;-69
2021/12/01 09:53:45;;;;;;;23.35;3.45;;;9.30;99.90;;;;;;6182197;23;20304;-69
2021/12/01 09:56:11;;;;;;;18.83;2.88;;;9.20;99.90;;;;;;6208740;23;20453;-69
2021/12/01 09:58:38;;;;;;;27.27;4.57;;;9.10;99.90;;;;;;6183040;23;20037;-70
2021/12/01 10:01:07;;;;;;;22.77;4.00;;;9.00;99.90;;;;;;6184922;23;20021;-70
2021/12/01 10:03:33;;;;;;;24.73;3.90;;;9.00;99.90;;;;;;6209753;23;20036;-69
2021/12/01 10:06:09;;;;;;;11.68;1.80;;;8.90;99.90;;;;;;6208863;23;20025;-72
2021/12/01 10:08:50;;;;;;;21.05;2.88;;;8.80;99.90;;;;;;6205694;23;20078;-70
2021/12/01 10:11:17;;;;;;;20.73;3.78;;;8.70;99.90;;;;;;6207825;23;20448;-65
2021/12/01 10:13:45;;;;;;;12.70;2.67;;;8.60;99.90;;;;;;6206657;23;20012;-66
2021/12/01 10:16:14;;;;;;;29.90;4.60;;;8.60;99.90;;;;;;6203505;23;20021;-69
2021/12/01 10:18:48;;;;;;;24.48;4.25;;;8.60;99.90;;;;;;6206577;23;20079;-69
2021/12/01 10:21:23;;;;;;;25.52;4.03;;;8.60;99.90;;;;;;6205402;23;20024;-70
2021/12/01 10:23:56;;;;;;;17.73;3.22;;;8.60;99.90;;;;;;6207515;23;20087;-68
2021/12/01 10:26:26;;;;;;;18.23;3.38;;;8.70;99.90;;;;;;6206885;23;20013;-68
2021/12/01 10:28:54;;;;;;;16.23;2.38;;;8.70;99.90;;;;;;6207115;23;20059;-68
2021/12/01 10:31:43;;;;;;;18.00;3.42;;;8.70;99.90;;;;;;6205830;23;20043;-68
2021/12/01 10:34:30;;;;;;;12.73;1.58;;;8.70;99.90;;;;;;6208015;23;20055;-68
2021/12/01 10:37:23;;;;;;;8.98;2.22;;;8.80;99.90;;;;;;6208417;23;20024;-68
2021/12/01 10:40:15;;;;;;;15.30;1.77;;;8.80;99.90;;;;;;6200956;23;20024;-68
2021/12/01 10:42:53;;;;;;;13.43;3.33;;;8.80;99.90;;;;;;6189021;23;20398;-68
2021/12/01 10:45:21;;;;;;;15.75;2.58;;;8.80;99.90;;;;;;6207036;23;20515;-68
2021/12/01 10:47:48;;;;;;;10.30;1.90;;;8.80;99.90;;;;;;6207047;23;20499;-68
2021/12/01 10:50:21;;;;;;;13.70;3.15;;;8.80;99.90;;;;;;6201555;23;20020;-68
2021/12/01 10:53:07;;;;;;;15.35;3.05;;;8.80;99.90;;;;;;6206067;23;20020;-68
2021/12/01 10:55:34;;;;;;;12.90;2.40;;;8.80;99.90;;;;;;6203662;23;20028;-68
2021/12/01 10:58:04;;;;;;;11.70;2.45;;;8.80;99.90;;;;;;6204879;23;20400;-68
2021/12/01 11:00:32;;;;;;;10.48;2.83;;;8.80;99.90;;;;;;6205697;23;20341;-71
2021/12/01 11:03:10;;;;;;;15.75;3.05;;;8.90;99.90;;;;;;6182555;23;20631;-71
2021/12/01 11:05:41;;;;;;;21.42;3.88;;;8.90;99.90;;;;;;6179226;23;20020;-71
2021/12/01 11:08:26;;;;;;;20.13;4.07;;;9.00;99.90;;;;;;6178660;23;20029;-71
2021/12/01 11:11:06;;;;;;;19.27;3.90;;;9.10;99.90;;;;;;6179206;23;20449;-71
2021/12/01 11:13:33;;;;;;;17.98;3.30;;;9.20;99.90;;;;;;6181260;23;20024;-71
2021/12/01 11:16:02;;;;;;;31.92;4.80;;;9.20;99.90;;;;;;6181506;23;20028;-72
2021/12/01 11:18:32;;;;;;;19.60;3.20;;;9.20;99.90;;;;;;6180837;23;20020;-72
2021/12/01 11:20:59;;;;;;;18.00;3.40;;;9.10;99.90;;;;;;6178654;23;20355;-71
2021/12/01 11:23:32;;;;;;;26.20;4.00;;;9.10;99.90;;;;;;6181081;23;20349;-71
2021/12/01 11:26:10;;;;;;;22.17;3.77;;;9.10;99.90;;;;;;6179739;23;20017;-71
2021/12/01 11:28:48;;;;;;;19.92;3.67;;;9.00;99.90;;;;;;6181928;23;20016;-71
2021/12/01 11:31:39;;;;;;;15.63;3.25;;;8.90;99.90;;;;;;6180607;23;20515;-71
2021/12/01 11:34:07;;;;;;;21.35;3.05;;;8.90;99.90;;;;;;6186248;23;20025;-71
2021/12/01 11:36:36;;;;;;;24.00;3.92;;;8.80;99.90;;;;;;6178406;23;20512;-71
2021/12/01 11:39:05;;;;;;;24.85;3.85;;;8.70;99.90;;;;;;6177528;23;20039;-72
2021/12/01 11:41:33;;;;;;;12.35;2.65;;;8.70;99.90;;;;;;6179296;23;20112;-72
2021/12/01 11:44:01;;;;;;;8.55;2.10;;;8.70;99.90;;;;;;6179830;23;20036;-72
2021/12/01 11:46:30;;;;;;;18.60;2.65;;;8.70;99.90;;;;;;6178019;23;20021;-72
2021/12/01 11:48:58;;;;;;;20.40;2.70;;;8.70;99.90;;;;;;6206133;23;20453;-71
2021/12/01 11:51:32;;;;;;;16.40;3.20;;;8.70;99.90;;;;;;6206747;23;20078;-72
2021/12/01 11:54:13;;;;;;;15.93;2.78;;;8.70;99.90;;;;;;6181595;23;20040;-72
2021/12/01 11:56:52;;;;;;;11.20;2.90;;;8.70;99.90;;;;;;6180913;23;20074;-72
2021/12/01 11:59:21;;;;;;;12.43;2.45;;;8.70;99.90;;;;;;6180320;23;20024;-72
2021/12/01 12:02:16;;;;;;;11.60;2.25;;;8.60;99.90;;;;;;6190275;23;20020;-70
2021/12/01 12:04:43;;;;;;;23.95;4.30;;;8.60;99.90;;;;;;6189160;23;20484;-71
2021/12/01 12:07:13;;;;;;;22.17;3.38;;;8.70;99.90;;;;;;6205480;23;20397;-70
2021/12/01 12:09:39;;;;;;;14.52;2.88;;;8.60;99.90;;;;;;6206932;23;20558;-71
2021/12/01 12:12:17;;;;;;;17.13;2.47;;;8.70;99.90;;;;;;6205966;23;20020;-71
2021/12/01 12:14:45;;;;;;;15.20;2.88;;;8.70;99.90;;;;;;6203117;23;20020;-71
2021/12/01 12:17:33;;;;;;;13.10;2.72;;;8.70;99.90;;;;;;6202039;23;20457;-71
2021/12/01 12:20:18;;;;;;;12.65;1.83;;;8.60;99.90;;;;;;6204888;23;20028;-71
2021/12/01 12:22:45;;;;;;;16.20;3.20;;;8.60;99.90;;;;;;6204272;23;20384;-71
2021/12/01 12:25:32;;;;;;;13.77;3.03;;;8.60;99.90;;;;;;6203461;23;20025;-71
2021/12/01 12:27:58;;;;;;;14.20;3.65;;;8.60;99.90;;;;;;6204958;23;20478;-71
2021/12/01 12:30:29;;;;;;;12.77;3.20;;;8.50;99.90;;;;;;6203561;23;20016;-71
2021/12/01 12:33:15;;;;;;;18.27;2.75;;;8.50;99.90;;;;;;6208831;23;20025;-72
2021/12/01 12:35:43;;;;;;;20.60;3.85;;;8.50;99.90;;;;;;6205498;23;20091;-71
2021/12/01 12:38:09;;;;;;;12.70;2.28;;;8.40;99.90;;;;;;6207712;23;20045;-71
2021/12/01 12:40:35;;;;;;;10.15;2.22;;;8.40;99.90;;;;;;6204714;23;20467;-71
2021/12/01 12:43:07;;;;;;;14.25;2.30;;;8.40;99.90;;;;;;6205247;23;20016;-72
2021/12/01 12:45:33;;;;;;;12.70;1.73;;;8.40;99.90;;;;;;6213056;23;20083;-71
2021/12/01 12:47:59;;;;;;;16.80;2.22;;;8.30;99.90;;;;;;6209591;23;20345;-72
2021/12/01 12:50:25;;;;;;;16.23;2.53;;;8.30;99.90;;;;;;6205675;23;20401;-71
2021/12/01 12:52:53;;;;;;;19.52;3.70;;;8.20;99.90;;;;;;6213978;23;20024;-71
2021/12/01 12:55:22;;;;;;;15.38;3.33;;;8.20;99.90;;;;;;6186568;23;20046;-71
2021/12/01 12:58:09;;;;;;;23.42;3.40;;;8.20;99.90;;;;;;6219629;23;20043;-71
2021/12/01 13:00:53;;;;;;;13.35;2.53;;;8.30;99.90;;;;;;6213979;23;20088;-71